Time;durP1;ratioP1;P1;durP2;ratioP2;P2;SDS_P1;SDS_P2;PMS_P1;PMS_P2;Temp;Humidity;BMP_temperature;BMP_pressure;BME280_temperature;BME280_humidity;BME280_pressure;Samples;Min_cycle;Max_cycle;Signal;HPM_P1;HPM_P2
2023/08/02 00:00:41;;;;;;;6.55;3.05;;;;;;;16.89;84.39;99884.44;3615908;39;20317;-65
2023/08/02 00:03:07;;;;;;;4.97;2.45;;;;;;;16.91;85.23;99887.84;3614059;39;20059;-66
2023/08/02 00:05:32;;;;;;;5.35;2.90;;;;;;;16.89;84.79;99880.88;3616903;39;20058;-65
2023/08/02 00:07:58;;;;;;;5.15;2.53;;;;;;;16.87;85.13;99891.91;3612982;39;20066;-66
2023/08/02 00:10:24;;;;;;;6.97;2.35;;;;;;;16.82;85.18;99894.22;3612588;39;20090;-66
2023/08/02 00:12:52;;;;;;;5.55;2.88;;;;;;;16.79;85.45;99888.28;3614627;39;20123;-65
2023/08/02 00:15:19;;;;;;;4.28;2.50;;;;;;;16.71;85.05;99880.88;3614886;39;20123;-65
2023/08/02 00:17:45;;;;;;;6.35;2.53;;;;;;;16.73;85.60;99888.88;3614693;39;20055;-65
2023/08/02 00:20:11;;;;;;;7.13;2.85;;;;;;;16.74;85.50;99896.84;3617973;39;20278;-65
2023/08/02 00:22:37;;;;;;;4.35;2.40;;;;;;;16.68;85.15;99886.59;3622305;39;20056;-65
2023/08/02 00:25:03;;;;;;;6.45;2.70;;;;;;;16.67;85.53;99887.63;3613415;39;20059;-65
2023/08/02 00:27:28;;;;;;;5.25;2.50;;;;;;;16.65;86.13;99879.66;3613771;39;20063;-65
2023/08/02 00:29:54;;;;;;;4.40;2.70;;;;;;;16.64;86.48;99885.22;3614341;39;20050;-64
2023/08/02 00:32:20;;;;;;;5.03;2.67;;;;;;;16.63;85.85;99880.81;3617377;39;20285;-64
2023/08/02 00:34:45;;;;;;;5.53;2.50;;;;;;;16.61;86.71;99880.09;3609229;39;20069;-64
2023/08/02 00:37:12;;;;;;;4.65;2.47;;;;;;;16.62;86.58;99887.25;3616547;39;20470;-64
2023/08/02 00:39:37;;;;;;;5.57;2.42;;;;;;;16.66;86.79;99869.66;3615449;39;20115;-64
2023/08/02 00:42:03;;;;;;;6.43;2.63;;;;;;;16.64;86.30;99864.38;3612724;39;20290;-64
2023/08/02 00:44:29;;;;;;;7.00;2.63;;;;;;;16.73;85.92;99867.16;3615612;39;20104;-64
2023/08/02 00:46:55;;;;;;;5.10;2.72;;;;;;;16.73;86.17;99867.16;3614924;39;20088;-64
2023/08/02 00:49:21;;;;;;;6.55;2.38;;;;;;;16.65;86.04;99833.53;3615623;39;20070;-66
2023/08/02 00:51:47;;;;;;;5.78;2.40;;;;;;;16.77;86.49;99844.97;3614872;39;20058;-65
2023/08/02 00:54:13;;;;;;;5.43;2.30;;;;;;;16.80;86.07;99844.66;3615830;39;20120;-65
2023/08/02 00:56:40;;;;;;;5.57;2.38;;;;;;;16.80;86.01;99822.94;3614722;39;20049;-65
2023/08/02 00:59:05;;;;;;;5.40;2.40;;;;;;;16.84;86.62;99826.19;3604307;39;20051;-65
2023/08/02 01:01:31;;;;;;;5.78;2.55;;;;;;;16.87;86.53;99828.59;3615051;39;20683;-65
2023/08/02 01:03:57;;;;;;;5.43;2.28;;;;;;;16.89;86.20;99826.59;3615290;39;20054;-65
2023/08/02 01:06:40;;;;;;;4.95;2.25;;;;;;;16.88;86.02;99828.44;3615718;39;20059;-65
2023/08/02 01:09:26;;;;;;;4.78;2.50;;;;;;;16.92;86.25;99823.53;3615335;39;20099;-65
2023/08/02 01:12:06;;;;;;;5.57;2.30;;;;;;;16.94;86.47;99829.69;3620011;39;20058;-65
2023/08/02 01:14:36;;;;;;;6.22;2.70;;;;;;;16.97;86.73;99825.75;3614570;39;20142;-64
2023/08/02 01:17:04;;;;;;;5.25;2.75;;;;;;;17.02;86.31;99839.72;3619161;39;20294;-64
2023/08/02 01:19:32;;;;;;;5.28;2.20;;;;;;;17.02;85.75;99837.00;3612253;39;20078;-66
2023/08/02 01:21:57;;;;;;;5.72;2.40;;;;;;;17.05;86.60;99836.69;3614531;39;20313;-65
2023/08/02 01:24:33;;;;;;;6.85;2.70;;;;;;;17.05;85.97;99823.09;3617327;39;20042;-65
2023/08/02 01:27:08;;;;;;;4.30;2.60;;;;;;;17.08;85.38;99817.34;3615095;39;20154;-65
2023/08/02 01:29:45;;;;;;;6.50;2.85;;;;;;;17.06;85.90;99808.50;3613778;39;20070;-65
2023/08/02 01:32:12;;;;;;;6.18;2.60;;;;;;;17.07;85.64;99812.94;3614915;39;20062;-65
2023/08/02 01:34:40;;;;;;;6.65;2.75;;;;;;;17.07;85.43;99813.78;3603314;39;20086;-65
2023/08/02 01:37:06;;;;;;;4.90;2.85;;;;;;;17.07;86.27;99807.53;3614017;39;20066;-65
2023/08/02 01:39:31;;;;;;;7.13;2.90;;;;;;;17.12;86.08;99810.59;3614864;39;20057;-65
2023/08/02 01:41:57;;;;;;;7.53;2.83;;;;;;;17.08;85.25;99795.63;3615567;39;20038;-64
2023/08/02 01:44:22;;;;;;;5.68;2.83;;;;;;;17.11;85.68;99789.88;3613681;39;20386;-65
2023/08/02 01:46:48;;;;;;;5.38;2.63;;;;;;;17.12;85.23;99795.13;3612066;39;20054;-65
2023/08/02 01:49:14;;;;;;;8.32;2.75;;;;;;;17.13;86.08;99782.44;3614671;39;20043;-65
2023/08/02 01:51:39;;;;;;;6.93;2.90;;;;;;;17.13;85.31;99787.88;3616335;39;20046;-65
2023/08/02 01:54:05;;;;;;;8.07;3.03;;;;;;;17.14;85.83;99786.84;3617441;39;20073;-65
2023/08/02 01:56:30;;;;;;;7.78;2.95;;;;;;;17.15;85.52;99780.38;3615971;39;20055;-65
2023/08/02 01:58:56;;;;;;;9.32;3.20;;;;;;;17.12;85.78;99772.56;3614885;39;20063;-65
2023/08/02 02:01:22;;;;;;;5.85;2.67;;;;;;;17.15;85.99;99769.53;3615378;39;20054;-64
2023/08/02 02:03:47;;;;;;;10.18;2.75;;;;;;;17.13;85.85;99764.28;3611757;39;20054;-64
2023/08/02 02:06:13;;;;;;;9.35;3.03;;;;;;;17.10;84.99;99755.59;3616006;39;20061;-66
2023/08/02 02:08:38;;;;;;;7.75;3.10;;;;;;;17.09;85.85;99756.59;3618780;39;20078;-65
2023/08/02 02:11:04;;;;;;;8.88;2.92;;;;;;;17.06;86.53;99735.19;3610481;39;20067;-65
2023/08/02 02:13:31;;;;;;;5.55;2.85;;;;;;;17.04;86.54;99739.97;3618054;39;20051;-65
2023/08/02 02:15:56;;;;;;;5.30;2.47;;;;;;;17.02;86.30;99739.25;3615231;39;20073;-65
2023/08/02 02:18:22;;;;;;;5.93;2.90;;;;;;;17.04;86.90;99723.66;3612996;39;20397;-65
2023/08/02 02:20:48;;;;;;;5.07;2.67;;;;;;;17.01;86.74;99713.97;3615327;39;20144;-65
2023/08/02 02:23:14;;;;;;;4.85;2.55;;;;;;;16.91;86.66;99692.41;3615423;39;20059;-65
2023/08/02 02:25:39;;;;;;;7.53;2.80;;;;;;;17.04;86.75;99704.66;3614262;39;20065;-66
2023/08/02 02:28:05;;;;;;;5.60;3.10;;;;;;;17.03;87.03;99697.50;3612248;39;20089;-65
2023/08/02 02:30:31;;;;;;;4.38;2.60;;;;;;;17.02;87.48;99679.53;3614167;39;20058;-65
2023/08/02 02:32:57;;;;;;;6.78;3.10;;;;;;;17.03;86.58;99673.06;3616742;39;20111;-64
2023/08/02 02:35:22;;;;;;;7.47;2.80;;;;;;;17.03;87.07;99676.66;3616511;39;20090;-65
2023/08/02 02:37:48;;;;;;;6.53;3.15;;;;;;;17.06;87.00;99678.19;3611700;39;20054;-65
2023/08/02 02:40:14;;;;;;;9.27;2.90;;;;;;;17.08;86.17;99677.00;3613285;39;20058;-65
2023/08/02 02:42:42;;;;;;;9.15;3.05;;;;;;;17.08;86.56;99687.88;3614175;39;20324;-65
2023/08/02 02:45:09;;;;;;;6.38;3.25;;;;;;;17.09;87.01;99675.13;3616656;39;20124;-64
2023/08/02 02:47:35;;;;;;;5.45;3.08;;;;;;;17.11;85.78;99665.81;3617564;39;20043;-65
2023/08/02 02:50:01;;;;;;;6.97;3.35;;;;;;;17.15;85.91;99674.47;3615732;39;20350;-65
2023/08/02 02:52:26;;;;;;;5.05;2.70;;;;;;;17.17;86.03;99686.03;3616121;39;20050;-65
2023/08/02 02:54:52;;;;;;;7.80;2.80;;;;;;;17.16;85.90;99679.75;3614014;39;20064;-64
2023/08/02 02:57:18;;;;;;;4.28;2.60;;;;;;;17.18;85.58;99679.56;3616100;39;20042;-64
2023/08/02 02:59:43;;;;;;;6.85;3.05;;;;;;;17.19;85.92;99667.72;3611226;39;20055;-64
2023/08/02 03:02:09;;;;;;;3.92;2.65;;;;;;;17.17;86.23;99664.31;3614465;39;20192;-65
2023/08/02 03:04:35;;;;;;;5.70;2.40;;;;;;;17.17;86.44;99664.31;3620025;39;20281;-65
2023/08/02 03:07:01;;;;;;;5.57;2.40;;;;;;;17.14;85.96;99648.34;3616908;39;20321;-65
2023/08/02 03:09:27;;;;;;;4.63;2.42;;;;;;;17.06;86.71;99615.72;3612608;39;20051;-65
2023/08/02 03:11:53;;;;;;;6.15;3.05;;;;;;;17.16;87.10;99613.72;3615910;39;20089;-64
2023/08/02 03:14:19;;;;;;;5.72;2.60;;;;;;;16.97;87.08;99571.44;3614947;39;20054;-65
2023/08/02 03:16:44;;;;;;;6.22;2.60;;;;;;;17.17;88.15;99599.13;3614135;39;20054;-65
2023/08/02 03:19:11;;;;;;;5.55;2.92;;;;;;;17.07;88.33;99574.84;3613085;39;20065;-64
2023/08/02 03:21:38;;;;;;;6.88;2.60;;;;;;;17.14;89.22;99591.31;3610655;39;20106;-64
2023/08/02 03:24:04;;;;;;;3.95;2.65;;;;;;;17.14;89.34;99583.16;3614247;39;20171;-63
2023/08/02 03:26:30;;;;;;;4.00;2.40;;;;;;;17.14;89.80;99578.59;3605759;39;20411;-64
2023/08/02 03:28:55;;;;;;;6.03;2.90;;;;;;;17.14;90.14;99572.31;3610833;39;20098;-64
2023/08/02 03:31:22;;;;;;;6.78;3.00;;;;;;;17.10;89.88;99565.53;3615073;39;20290;-65
2023/08/02 03:33:47;;;;;;;6.78;3.03;;;;;;;17.14;89.82;99570.44;3611484;39;20087;-64
2023/08/02 03:36:13;;;;;;;7.40;2.92;;;;;;;17.13;90.45;99589.63;3613407;39;20091;-65
2023/08/02 03:38:39;;;;;;;5.05;2.90;;;;;;;17.13;90.94;99576.06;3615068;39;20058;-65
2023/08/02 03:41:04;;;;;;;3.90;2.78;;;;;;;17.14;90.39;99575.03;3611854;39;20062;-66
2023/08/02 03:43:30;;;;;;;4.43;2.70;;;;;;;17.14;91.24;99553.31;3616713;39;20349;-65
2023/08/02 03:45:55;;;;;;;6.90;3.25;;;;;;;17.12;90.78;99556.16;3615438;39;20047;-65
2023/08/02 03:48:21;;;;;;;7.47;3.28;;;;;;;17.11;90.62;99554.47;3613520;39;20297;-64
2023/08/02 03:50:47;;;;;;;5.90;3.20;;;;;;;17.11;91.00;99549.06;3613466;39;20053;-65
2023/08/02 03:53:12;;;;;;;8.02;3.80;;;;;;;17.10;91.57;99543.81;3618093;39;20054;-65
2023/08/02 03:55:38;;;;;;;7.88;4.32;;;;;;;17.09;91.58;99536.66;3616120;39;20059;-64
2023/08/02 03:58:04;;;;;;;5.35;3.17;;;;;;;17.08;91.38;99524.09;3614254;39;20070;-65
2023/08/02 04:00:30;;;;;;;4.82;3.25;;;;;;;17.08;91.13;99524.09;3615271;39;20051;-65
2023/08/02 04:02:56;;;;;;;6.50;3.20;;;;;;;17.10;90.84;99513.94;3616514;39;20050;-67
2023/08/02 04:05:22;;;;;;;5.93;3.00;;;;;;;17.06;91.06;99504.41;3613555;39;20058;-67
2023/08/02 04:07:47;;;;;;;4.68;2.60;;;;;;;17.07;91.64;99497.97;3613599;39;20051;-65
2023/08/02 04:10:13;;;;;;;8.75;3.65;;;;;;;17.07;90.56;99489.84;3619527;39;20067;-64
2023/08/02 04:12:38;;;;;;;4.30;3.00;;;;;;;17.06;90.85;99490.84;3617885;39;20054;-65
2023/08/02 04:15:05;;;;;;;8.55;3.55;;;;;;;17.05;91.60;99475.56;3617930;39;20082;-65
2023/08/02 04:17:31;;;;;;;5.88;3.47;;;;;;;17.03;90.66;99483.91;3613107;39;20056;-66
2023/08/02 04:19:58;;;;;;;6.90;3.78;;;;;;;17.02;91.26;99475.91;3613088;39;20067;-65
2023/08/02 04:22:24;;;;;;;6.97;3.92;;;;;;;16.93;91.41;99451.47;3617818;39;20050;-64
2023/08/02 04:24:49;;;;;;;6.10;3.50;;;;;;;17.06;91.83;99460.97;3614625;39;20058;-64
2023/08/02 04:27:15;;;;;;;5.03;3.22;;;;;;;17.08;91.56;99464.38;3618972;39;20414;-64
2023/08/02 04:29:41;;;;;;;5.75;3.30;;;;;;;17.04;91.83;99438.59;3618351;39;20058;-64
2023/08/02 04:32:06;;;;;;;5.25;3.30;;;;;;;16.64;91.37;99358.84;3618124;39;20042;-66
2023/08/02 04:34:32;;;;;;;7.25;3.47;;;;;;;17.05;91.21;99430.25;3613051;39;20067;-64
2023/08/02 04:36:58;;;;;;;7.32;3.60;;;;;;;17.08;91.55;99431.78;3616064;39;20069;-65
2023/08/02 04:39:23;;;;;;;7.32;3.40;;;;;;;17.09;91.78;99428.03;3615076;39;20059;-65
2023/08/02 04:41:54;;;;;;;5.90;3.50;;;;;;;17.10;91.18;99421.63;3619596;39;20054;-65
2023/08/02 04:44:20;;;;;;;7.63;3.67;;;;;;;17.11;91.50;99407.84;3614557;39;20051;-65
2023/08/02 04:46:46;;;;;;;7.32;3.88;;;;;;;17.11;90.88;99397.00;3613366;39;20337;-65
2023/08/02 04:49:12;;;;;;;7.07;3.40;;;;;;;17.13;91.21;99377.81;3615933;39;20051;-65
2023/08/02 04:51:38;;;;;;;4.90;3.50;;;;;;;17.14;91.51;99380.34;3616757;39;20058;-65
2023/08/02 04:54:04;;;;;;;5.93;3.45;;;;;;;17.16;91.82;99374.78;3613069;39;20115;-65
2023/08/02 04:56:31;;;;;;;5.10;3.75;;;;;;;17.20;91.55;99364.41;3617467;39;20296;-65
2023/08/02 04:58:57;;;;;;;6.88;3.88;;;;;;;17.15;91.31;99359.47;3616247;39;20328;-65
2023/08/02 05:01:22;;;;;;;7.10;3.88;;;;;;;17.19;90.92;99366.28;3616413;39;20062;-66
2023/08/02 05:03:48;;;;;;;7.55;3.67;;;;;;;17.20;92.49;99354.38;3614963;39;20320;-65
2023/08/02 05:06:13;;;;;;;7.65;3.88;;;;;;;17.21;92.21;99361.50;3614467;39;20098;-65
2023/08/02 05:08:39;;;;;;;5.57;3.60;;;;;;;17.12;92.58;99343.53;3615227;39;20049;-65
2023/08/02 05:11:06;;;;;;;7.05;3.90;;;;;;;17.16;93.34;99353.03;3618448;39;20061;-65
2023/08/02 05:13:33;;;;;;;4.95;3.65;;;;;;;17.14;93.28;99349.66;3617867;39;20382;-65
2023/08/02 05:15:59;;;;;;;5.95;3.80;;;;;;;17.09;94.06;99346.59;3617162;39;20075;-65
2023/08/02 05:18:24;;;;;;;4.60;3.97;;;;;;;16.93;95.24;99323.03;3615822;39;20405;-66
2023/08/02 05:20:50;;;;;;;4.30;3.70;;;;;;;17.00;95.79;99336.75;3612684;39;20051;-65
2023/08/02 05:23:16;;;;;;;7.35;4.00;;;;;;;16.99;96.07;99318.78;3614187;39;20073;-65
2023/08/02 05:25:42;;;;;;;6.38;3.63;;;;;;;16.90;95.87;99310.69;3617683;39;20057;-65
2023/08/02 05:28:08;;;;;;;7.03;3.88;;;;;;;16.94;95.79;99317.44;3618589;39;20051;-65
2023/08/02 05:30:36;;;;;;;4.50;3.80;;;;;;;16.90;97.45;99304.38;3615328;39;20412;-65
2023/08/02 05:33:03;;;;;;;5.93;3.85;;;;;;;16.90;96.97;99301.66;3613561;39;20062;-65
2023/08/02 05:35:30;;;;;;;7.15;4.28;;;;;;;16.84;97.98;99278.81;3612447;39;20378;-66
2023/08/02 05:37:56;;;;;;;6.38;3.95;;;;;;;16.88;97.61;99285.56;3616453;39;20050;-66
2023/08/02 05:40:22;;;;;;;5.93;4.30;;;;;;;16.88;98.29;99273.88;3615218;39;20326;-65
2023/08/02 05:42:48;;;;;;;4.53;3.65;;;;;;;16.88;99.17;99269.28;3613393;39;20365;-66
2023/08/02 05:45:15;;;;;;;6.45;4.40;;;;;;;16.85;98.80;99269.63;3613143;39;20043;-66
2023/08/02 05:47:41;;;;;;;6.82;4.10;;;;;;;16.88;99.41;99268.44;3614162;39;20682;-64
2023/08/02 05:50:07;;;;;;;7.30;4.00;;;;;;;16.87;98.99;99256.75;3612132;39;20055;-66
2023/08/02 05:52:33;;;;;;;7.13;4.35;;;;;;;16.90;99.25;99255.53;3615345;39;20054;-66
2023/08/02 05:54:59;;;;;;;5.82;3.97;;;;;;;16.93;98.80;99250.59;3612993;39;20096;-66
2023/08/02 05:57:24;;;;;;;4.63;3.85;;;;;;;16.92;99.24;99238.06;3613621;39;20082;-66
2023/08/02 05:59:50;;;;;;;4.20;3.70;;;;;;;16.90;99.83;99225.66;3613161;39;20054;-67
2023/08/02 06:02:17;;;;;;;3.95;3.40;;;;;;;16.87;100.00;99207.88;3613423;39;20050;-66
2023/08/02 06:04:45;;;;;;;4.25;3.38;;;;;;;16.85;100.00;99199.06;3613332;39;20046;-66
2023/08/02 06:07:11;;;;;;;4.07;3.67;;;;;;;16.83;99.94;99201.09;3615470;39;20085;-66
2023/08/02 06:09:37;;;;;;;6.05;3.60;;;;;;;16.84;100.00;99180.22;3614172;39;20156;-65
2023/08/02 06:12:03;;;;;;;5.72;3.50;;;;;;;16.84;100.00;99189.25;3616336;39;20193;-66
2023/08/02 06:14:29;;;;;;;4.00;3.65;;;;;;;16.72;100.00;99152.63;3615168;39;20378;-66
2023/08/02 06:16:55;;;;;;;3.50;3.20;;;;;;;16.84;100.00;99175.66;3613765;39;20065;-65
2023/08/02 06:19:20;;;;;;;3.90;3.03;;;;;;;16.84;100.00;99162.09;3615295;39;20306;-65
2023/08/02 06:21:46;;;;;;;3.80;3.05;;;;;;;16.82;100.00;99142.44;3616033;39;20054;-65
2023/08/02 06:24:12;;;;;;;4.57;2.88;;;;;;;16.88;100.00;99147.16;3613285;39;20043;-65
2023/08/02 06:26:37;;;;;;;4.50;3.00;;;;;;;16.95;100.00;99139.13;3609141;39;20058;-65
2023/08/02 06:29:06;;;;;;;3.00;2.80;;;;;;;16.92;100.00;99134.91;3611575;39;20127;-66
2023/08/02 06:31:32;;;;;;;4.28;2.78;;;;;;;16.94;100.00;99134.75;3614513;39;20046;-66
2023/08/02 06:33:58;;;;;;;3.45;2.80;;;;;;;16.93;100.00;99122.19;3613580;39;20122;-65
2023/08/02 06:36:23;;;;;;;3.33;3.03;;;;;;;16.90;100.00;99108.97;3618950;39;20058;-66
2023/08/02 06:38:49;;;;;;;3.22;3.00;;;;;;;16.93;100.00;99104.00;3615587;39;20094;-65
2023/08/02 06:41:15;;;;;;;2.85;2.65;;;;;;;16.94;100.00;99100.28;3614813;39;20062;-65
2023/08/02 06:43:41;;;;;;;3.20;2.90;;;;;;;16.91;100.00;99087.09;3613559;39;20057;-65
2023/08/02 06:46:06;;;;;;;4.85;2.90;;;;;;;16.97;100.00;99081.94;3613217;39;20047;-65
2023/08/02 06:48:32;;;;;;;4.60;2.78;;;;;;;17.01;100.00;99077.88;3615213;39;20073;-64
2023/08/02 06:50:59;;;;;;;2.90;2.60;;;;;;;16.99;100.00;99074.47;3612340;39;20088;-65
2023/08/02 06:53:25;;;;;;;3.60;2.90;;;;;;;16.98;100.00;99064.66;3617822;39;20086;-65
2023/08/02 06:55:50;;;;;;;3.22;2.70;;;;;;;17.00;100.00;99054.44;3618528;39;20065;-65
2023/08/02 06:58:16;;;;;;;3.53;2.63;;;;;;;17.00;100.00;99044.47;3614036;39;20050;-64
2023/08/02 07:00:42;;;;;;;2.60;2.40;;;;;;;17.02;100.00;99038.81;3615495;39;20368;-64
2023/08/02 07:03:08;;;;;;;2.55;2.35;;;;;;;17.03;100.00;99043.22;3618511;39;20379;-64
2023/08/02 07:05:34;;;;;;;2.28;2.08;;;;;;;17.04;100.00;99036.78;3616833;39;20050;-64
2023/08/02 07:08:03;;;;;;;2.40;2.20;;;;;;;17.04;100.00;99029.50;3612234;39;20051;-64
2023/08/02 07:10:30;;;;;;;2.40;2.20;;;;;;;17.04;100.00;99017.78;3613815;39;20208;-64
2023/08/02 07:12:57;;;;;;;2.42;2.20;;;;;;;17.06;100.00;99015.72;3615808;39;20046;-64
2023/08/02 07:15:22;;;;;;;2.15;2.00;;;;;;;16.68;100.00;98955.91;3616774;39;20054;-64
2023/08/02 07:17:49;;;;;;;2.08;1.88;;;;;;;17.10;100.00;99017.06;3618206;39;20309;-64
2023/08/02 07:20:15;;;;;;;3.92;2.20;;;;;;;17.06;100.00;98999.44;3617287;39;20054;-64
2023/08/02 07:22:44;;;;;;;3.50;1.90;;;;;;;17.12;100.00;99007.69;3621041;39;20294;-64
2023/08/02 07:25:10;;;;;;;2.08;1.88;;;;;;;17.10;100.00;98996.19;3619054;39;20366;-64
2023/08/02 07:27:38;;;;;;;2.45;2.17;;;;;;;17.18;100.00;99004.25;3614761;39;20051;-64
2023/08/02 07:30:04;;;;;;;2.20;2.00;;;;;;;17.20;100.00;99005.97;3621874;39;20062;-65
2023/08/02 07:32:33;;;;;;;2.10;1.95;;;;;;;17.21;100.00;98996.78;3618079;39;20063;-64
2023/08/02 07:34:59;;;;;;;2.47;2.28;;;;;;;17.27;100.00;98991.44;3616102;39;20101;-64
2023/08/02 07:37:25;;;;;;;2.83;2.45;;;;;;;17.27;100.00;98986.03;3618847;39;20715;-64
2023/08/02 07:39:50;;;;;;;2.30;2.10;;;;;;;17.30;100.00;98991.09;3617004;39;20065;-64
2023/08/02 07:42:16;;;;;;;2.60;2.40;;;;;;;17.34;100.00;98988.84;3617297;39;20127;-64
2023/08/02 07:44:42;;;;;;;2.50;2.25;;;;;;;17.38;100.00;98972.03;3618188;39;20381;-64
2023/08/02 07:47:09;;;;;;;2.45;2.25;;;;;;;17.44;100.00;98969.56;3613909;39;20057;-64
2023/08/02 07:49:35;;;;;;;2.05;1.95;;;;;;;17.49;100.00;98964.44;3619079;39;20059;-64
2023/08/02 07:52:00;;;;;;;2.72;2.13;;;;;;;17.53;100.00;98960.31;3615267;39;20424;-64
2023/08/02 07:54:26;;;;;;;3.20;2.20;;;;;;;17.54;100.00;98959.31;3616664;39;20090;-64
2023/08/02 07:56:51;;;;;;;2.30;2.20;;;;;;;17.55;100.00;98944.69;3616868;39;20074;-64
2023/08/02 07:59:17;;;;;;;2.38;2.10;;;;;;;17.57;100.00;98945.31;3617046;39;20393;-64
2023/08/02 08:01:43;;;;;;;2.20;2.10;;;;;;;17.61;100.00;98941.22;3613074;39;20051;-64
2023/08/02 08:04:09;;;;;;;2.20;2.00;;;;;;;17.67;100.00;98937.75;3614500;39;20215;-64
2023/08/02 08:06:36;;;;;;;2.08;1.88;;;;;;;17.51;100.00;98903.47;3613925;39;20059;-63
2023/08/02 08:09:01;;;;;;;2.00;1.90;;;;;;;17.78;100.00;98940.03;3614769;39;20377;-64
2023/08/02 08:11:29;;;;;;;1.85;1.75;;;;;;;17.66;100.00;98891.75;3615292;39;20069;-64
2023/08/02 08:13:56;;;;;;;1.88;1.77;;;;;;;17.86;100.00;98936.38;3619565;39;20374;-63
2023/08/02 08:16:22;;;;;;;2.45;1.85;;;;;;;17.90;100.00;98936.84;3615849;39;20043;-63
2023/08/02 08:18:48;;;;;;;1.63;1.52;;;;;;;17.93;100.00;98925.59;3608657;39;20293;-64
2023/08/02 08:21:13;;;;;;;1.75;1.60;;;;;;;17.97;100.00;98924.19;3613123;39;20086;-63
2023/08/02 08:23:40;;;;;;;1.67;1.38;;;;;;;17.82;100.00;98891.56;3614715;39;20063;-64
2023/08/02 08:26:11;;;;;;;1.35;1.30;;;;;;;17.95;100.00;98901.78;3619045;39;20426;-64
2023/08/02 08:28:37;;;;;;;1.08;1.05;;;;;;;18.05;100.00;98905.06;3618597;39;20382;-64
2023/08/02 08:31:04;;;;;;;1.30;1.20;;;;;;;18.10;100.00;98908.88;3616758;39;20050;-64
2023/08/02 08:33:31;;;;;;;1.33;1.23;;;;;;;18.17;100.00;98908.94;3615463;39;20429;-64
2023/08/02 08:35:57;;;;;;;1.75;0.98;;;;;;;18.24;100.00;98918.06;3614798;39;20055;-64
2023/08/02 08:38:23;;;;;;;0.90;0.90;;;;;;;18.30;100.00;98914.56;3617194;39;20086;-64
2023/08/02 08:40:55;;;;;;;0.88;0.88;;;;;;;18.38;100.00;98913.59;3613717;39;20077;-64
2023/08/02 08:43:26;;;;;;;1.25;1.10;;;;;;;18.35;100.00;98900.38;3615022;39;20050;-64
2023/08/02 08:45:53;;;;;;;1.42;1.33;;;;;;;18.50;100.00;98905.78;3614801;39;20127;-63
2023/08/02 08:48:19;;;;;;;2.13;1.27;;;;;;;18.56;100.00;98907.72;3614008;39;20354;-64
2023/08/02 08:50:49;;;;;;;1.67;1.58;;;;;;;18.63;100.00;98900.47;3614330;39;20312;-64
2023/08/02 08:53:30;;;;;;;1.60;1.50;;;;;;;18.71;100.00;98905.81;3615224;39;20034;-64
2023/08/02 08:55:57;;;;;;;1.92;1.40;;;;;;;18.79;100.00;98902.97;3613327;39;20394;-64
2023/08/02 08:58:24;;;;;;;1.55;1.42;;;;;;;18.87;100.00;98901.13;3614701;39;20058;-64
2023/08/02 09:00:53;;;;;;;2.20;1.33;;;;;;;18.97;100.00;98896.22;3612242;39;20059;-64
2023/08/02 09:03:20;;;;;;;1.17;1.13;;;;;;;19.02;100.00;98891.84;3617066;39;20043;-64
2023/08/02 09:05:48;;;;;;;1.20;1.10;;;;;;;19.11;100.00;98887.09;3617024;39;20046;-64
2023/08/02 09:08:14;;;;;;;1.05;1.05;;;;;;;19.17;100.00;98885.47;3616474;39;20053;-63
2023/08/02 09:10:39;;;;;;;0.90;0.90;;;;;;;19.23;100.00;98879.25;3605283;39;20043;-63
2023/08/02 09:13:05;;;;;;;1.38;1.02;;;;;;;19.30;100.00;98873.84;3614941;39;20430;-64
2023/08/02 09:15:31;;;;;;;2.42;1.23;;;;;;;19.39;100.00;98869.91;3613449;39;20110;-63
2023/08/02 09:17:57;;;;;;;1.10;1.00;;;;;;;19.49;100.00;98867.66;3619644;39;20066;-64
2023/08/02 09:20:26;;;;;;;1.30;1.30;;;;;;;19.61;100.00;98859.78;3612300;39;20047;-64
2023/08/02 09:22:52;;;;;;;2.08;0.88;;;;;;;19.73;100.00;98846.44;3614722;39;20047;-64
2023/08/02 09:25:26;;;;;;;1.25;1.20;;;;;;;19.81;100.00;98847.09;3614342;39;20091;-63
2023/08/02 09:27:55;;;;;;;1.00;1.00;;;;;;;19.79;100.00;98811.03;3614950;39;20063;-64
2023/08/02 09:30:32;;;;;;;0.80;0.80;;;;;;;20.08;100.00;98839.03;3615496;39;20084;-64
2023/08/02 09:33:08;;;;;;;0.90;0.90;;;;;;;20.14;100.00;98833.59;3617463;39;20537;-63
2023/08/02 09:35:50;;;;;;;0.80;0.80;;;;;;;20.14;100.00;98836.34;3614549;39;20444;-65
2023/08/02 09:38:16;;;;;;;0.95;0.95;;;;;;;20.17;100.00;98843.25;3609021;39;20054;-64
2023/08/02 09:40:47;;;;;;;0.90;0.90;;;;;;;20.18;100.00;98834.03;3614663;39;20069;-64
2023/08/02 09:43:15;;;;;;;1.00;1.00;;;;;;;20.20;99.95;98828.34;3617216;39;20054;-64
2023/08/02 09:45:41;;;;;;;1.08;1.02;;;;;;;20.30;100.00;98820.63;3612940;39;20091;-64
2023/08/02 09:48:07;;;;;;;1.00;0.90;;;;;;;20.51;100.00;98823.19;3611865;39;20051;-64
2023/08/02 09:50:33;;;;;;;1.88;0.98;;;;;;;20.79;100.00;98824.91;3614925;39;20063;-64
2023/08/02 09:53:15;;;;;;;1.25;1.15;;;;;;;20.95;100.00;98813.56;3615078;39;20058;-64
2023/08/02 09:55:46;;;;;;;0.70;0.70;;;;;;;21.08;97.42;98813.53;3617376;39;20051;-64
2023/08/02 09:58:14;;;;;;;1.38;0.60;;;;;;;21.14;96.11;98813.75;3617616;39;20046;-63
2023/08/02 10:00:40;;;;;;;1.33;0.70;;;;;;;21.13;95.64;98812.91;3614052;39;20094;-63
2023/08/02 10:03:11;;;;;;;0.60;0.60;;;;;;;21.06;92.68;98818.38;3616367;39;20253;-64
2023/08/02 10:05:45;;;;;;;0.60;0.60;;;;;;;21.05;94.89;98818.59;3617126;39;20131;-64
2023/08/02 10:08:14;;;;;;;0.77;0.77;;;;;;;21.10;96.10;98819.63;3614860;39;20051;-63
2023/08/02 10:10:45;;;;;;;1.58;0.75;;;;;;;21.35;95.83;98813.53;3616218;39;20423;-64
2023/08/02 10:13:21;;;;;;;0.60;0.60;;;;;;;21.56;94.63;98810.50;3618079;39;20047;-64
2023/08/02 10:15:49;;;;;;;1.25;0.70;;;;;;;21.36;92.01;98721.44;3618675;39;20047;-63
2023/08/02 10:18:17;;;;;;;0.60;0.60;;;;;;;22.31;91.75;98798.19;3612948;39;20042;-63
2023/08/02 10:20:46;;;;;;;1.02;0.73;;;;;;;22.46;86.17;98785.88;3613813;39;20059;-64
2023/08/02 10:23:11;;;;;;;0.68;0.47;;;;;;;22.46;86.18;98774.94;3614583;39;20073;-63
2023/08/02 10:25:37;;;;;;;0.55;0.55;;;;;;;22.59;86.32;98776.72;3613852;39;20389;-63
2023/08/02 10:28:03;;;;;;;2.33;0.70;;;;;;;22.59;84.59;98784.94;3614721;39;20086;-63
2023/08/02 10:30:32;;;;;;;0.80;0.60;;;;;;;22.73;85.50;98787.56;3615803;39;20063;-63
2023/08/02 10:33:19;;;;;;;0.60;0.60;;;;;;;22.93;82.87;98775.41;3613993;39;20076;-63
2023/08/02 10:36:01;;;;;;;0.60;0.60;;;;;;;22.97;83.72;98762.09;3618605;39;20154;-63
2023/08/02 10:38:28;;;;;;;0.63;0.60;;;;;;;22.90;81.06;98767.59;3612463;39;20054;-63
2023/08/02 10:41:03;;;;;;;0.63;0.60;;;;;;;22.80;80.84;98750.81;3612848;39;20046;-65
2023/08/02 10:43:29;;;;;;;0.80;0.80;;;;;;;22.60;80.73;98748.25;3616781;39;20043;-65
2023/08/02 10:46:29;;;;;;;0.70;0.70;;;;;;;22.29;81.51;98732.72;3613380;39;20103;-64
2023/08/02 10:49:17;;;;;;;0.88;0.80;;;;;;;22.21;82.47;98758.47;3595285;39;20412;-64
2023/08/02 10:51:45;;;;;;;0.73;0.73;;;;;;;22.06;84.28;98760.63;3605439;39;20051;-66
2023/08/02 10:54:19;;;;;;;0.93;0.93;;;;;;;21.86;87.21;98760.75;3613576;39;20130;-67
2023/08/02 10:56:51;;;;;;;1.20;1.15;;;;;;;21.64;88.57;98734.78;3613913;39;20051;-66
2023/08/02 10:59:35;;;;;;;1.40;1.30;;;;;;;21.44;90.81;98724.78;3612652;39;20051;-65
2023/08/02 11:02:07;;;;;;;1.70;1.55;;;;;;;21.31;94.46;98708.38;3613662;39;20453;-65
2023/08/02 11:04:37;;;;;;;1.45;1.40;;;;;;;21.19;95.16;98710.97;3615951;39;20080;-65
2023/08/02 11:07:20;;;;;;;1.70;1.60;;;;;;;21.09;97.10;98708.69;3612925;39;20389;-64
2023/08/02 11:09:49;;;;;;;4.07;1.60;;;;;;;21.06;97.57;98722.78;3613028;39;20051;-64
2023/08/02 11:12:21;;;;;;;2.20;1.60;;;;;;;21.01;98.82;98730.75;3615190;39;20046;-65
2023/08/02 11:14:51;;;;;;;3.10;1.80;;;;;;;20.91;98.47;98719.44;3612595;39;20042;-67
2023/08/02 11:17:22;;;;;;;4.50;1.83;;;;;;;20.71;100.00;98713.16;3614649;39;20054;-66
2023/08/02 11:19:51;;;;;;;2.28;1.80;;;;;;;20.77;100.00;98706.84;3610712;39;20114;-65
2023/08/02 11:22:18;;;;;;;2.40;1.63;;;;;;;20.68;100.00;98732.69;3611961;39;20055;-64
2023/08/02 11:24:45;;;;;;;2.72;1.42;;;;;;;20.58;100.00;98736.72;3613423;39;20111;-63
2023/08/02 11:27:26;;;;;;;1.25;1.15;;;;;;;20.50;98.80;98739.59;3613987;39;20059;-65
2023/08/02 11:29:59;;;;;;;1.75;1.20;;;;;;;20.55;100.00;98745.31;3615727;39;20057;-64
2023/08/02 11:32:26;;;;;;;1.67;1.55;;;;;;;20.66;100.00;98737.53;3614101;39;20066;-64